SCC: Trois-Rivieres: GS practice two times

Pos Num Class Team Time Gap To 1st Speed --- --- ----- ------------------------------ ---------- ------- ------- ------- 1. 55 GS Hyper Sport 1:12.921 75.089 2. 97...

Pos Num Class Team                                 Time     Gap  To 1st   Speed
--- --- ----- ------------------------------ ---------- ------- ------- -------
 1.  55 GS    Hyper Sport                      1:12.921                  75.089
 2.  97 GS    Turner Motorsport                1:13.121   0.200   0.200  74.884
 3.   5 GS    Blackforest Motorsports          1:13.616   0.495   0.695  74.381
 4.  96 GS    Turner Motorsport                1:13.622   0.006   0.701  74.375
 5.  82 GS    BRG/Group 88 Motorsports         1:13.769   0.147   0.848  74.226
 6. 137 GS    JBS Motorsports                  1:13.799   0.030   0.878  74.196
 7.  79 GS    Kinetic Motorsports              1:13.888   0.089   0.967  74.107
 8.  37 GS    JBS Racing                       1:13.967   0.079   1.046  74.028
 9.  38 GS    BGB Motorsports                  1:14.057   0.090   1.136  73.938
10.  25 GS    Fiorano/C-MAX Racing             1:14.157   0.100   1.236  73.838
11.  52 GS    Rehagen Racing                   1:14.223   0.066   1.302  73.772
12.  88 GS    Ranger Sports Racing             1:14.234   0.011   1.313  73.761
13.   4 GS    Blackforest Motorsports          1:14.289   0.055   1.368  73.707
14.  42 GS    TRG                              1:14.354   0.065   1.433  73.642
15.  09 GS    Automatic Racing                 1:14.605   0.251   1.684  73.395
16.  39 GS    TRG                              1:14.937   0.332   2.016  73.069
17.  41 GS    TRG                              1:15.031   0.094   2.110  72.978
18.  83 GS    BGB Motorsports                  1:15.235   0.204   2.314  72.780
19.  54 GS    Hyper Sport                      1:15.255   0.020   2.334  72.761
20.  40 GS    TRG                              1:15.433   0.178   2.512  72.589
21.  49 GS    Marcus Motorsports               1:15.550   0.117   2.629  72.477
22.  99 GS    Automatic Racing                 1:15.666   0.116   2.745  72.365
23. 154 GS    Rehagen Racing                   1:15.917   0.251   2.996  72.126
24.  91 GS    Automatic Racing                 1:16.513   0.596   3.592  71.564
25. 150 GS    Rehagen Racing                   1:16.703   0.190   3.782  71.387
26.  90 GS    Automatic Racing                 1:17.017   0.314   4.096  71.096
27.  89 GS    Ranger Sports Racing             1:17.722   0.705   4.801  70.451
28.  59 GS    Rehagen Racing                    No Time

Be part of something big

Write a comment
Show comments
About this article
Series Grand-Am
Teams Kinetic Motorsports , Rehagen Racing , Turner Motorsport , Automatic Racing